sensor_id;sensor_type;location;lat;lon;timestamp;P1;durP1;ratioP1;P2;durP2;ratioP2
65092;SDS011;52025;50.288;2.794;2023-03-01T06:18:44;13.07;;;7.43;;
65092;SDS011;52025;50.288;2.794;2023-03-01T06:21:09;14.57;;;7.88;;
65092;SDS011;52025;50.288;2.794;2023-03-01T06:23:37;12.15;;;7.35;;
65092;SDS011;52025;50.288;2.794;2023-03-01T06:26:06;12.82;;;7.25;;
65092;SDS011;52025;50.288;2.794;2023-03-01T06:28:31;17.63;;;9.82;;
65092;SDS011;52025;50.288;2.794;2023-03-01T06:30:56;13.98;;;7.65;;
65092;SDS011;52025;50.288;2.794;2023-03-01T06:33:22;11.27;;;7.43;;
65092;SDS011;52025;50.288;2.794;2023-03-01T06:35:49;11.30;;;7.72;;
65092;SDS011;52025;50.288;2.794;2023-03-01T06:38:14;10.38;;;7.15;;
65092;SDS011;52025;50.288;2.794;2023-03-01T06:40:40;13.00;;;7.28;;
65092;SDS011;52025;50.288;2.794;2023-03-01T06:43:05;11.70;;;7.57;;
65092;SDS011;52025;50.288;2.794;2023-03-01T06:45:32;13.10;;;7.75;;
65092;SDS011;52025;50.288;2.794;2023-03-01T06:48:04;13.63;;;8.32;;
65092;SDS011;52025;50.288;2.794;2023-03-01T06:50:29;12.65;;;8.20;;
65092;SDS011;52025;50.288;2.794;2023-03-01T06:52:58;15.27;;;7.95;;
65092;SDS011;52025;50.288;2.794;2023-03-01T06:55:23;12.57;;;7.65;;
65092;SDS011;52025;50.288;2.794;2023-03-01T06:57:48;14.90;;;9.25;;
65092;SDS011;52025;50.288;2.794;2023-03-01T07:00:21;11.18;;;7.25;;
65092;SDS011;52025;50.288;2.794;2023-03-01T07:15:21;16.20;;;8.90;;
65092;SDS011;52025;50.288;2.794;2023-03-01T07:20:47;13.32;;;8.13;;
65092;SDS011;52025;50.288;2.794;2023-03-01T07:23:18;12.40;;;8.68;;
65092;SDS011;52025;50.288;2.794;2023-03-01T07:25:55;14.07;;;8.50;;
65092;SDS011;52025;50.288;2.794;2023-03-01T08:13:22;16.55;;;8.57;;
65092;SDS011;52025;50.288;2.794;2023-03-01T08:16:07;12.30;;;8.85;;
65092;SDS011;52025;50.288;2.794;2023-03-01T08:18:50;17.80;;;8.88;;
65092;SDS011;52025;50.288;2.794;2023-03-01T08:24:25;13.00;;;8.60;;
65092;SDS011;52025;50.288;2.794;2023-03-01T08:26:53;11.55;;;8.15;;
65092;SDS011;52025;50.288;2.794;2023-03-01T08:29:21;13.57;;;8.65;;
65092;SDS011;52025;50.288;2.794;2023-03-01T08:32:09;15.23;;;8.68;;
65092;SDS011;52025;50.288;2.794;2023-03-01T08:34:36;14.57;;;8.57;;
65092;SDS011;52025;50.288;2.794;2023-03-01T08:37:05;11.48;;;7.97;;
65092;SDS011;52025;50.288;2.794;2023-03-01T08:39:38;13.65;;;8.93;;
65092;SDS011;52025;50.288;2.794;2023-03-01T08:45:08;11.95;;;7.80;;
65092;SDS011;52025;50.288;2.794;2023-03-01T08:59:36;12.13;;;7.57;;
65092;SDS011;52025;50.288;2.794;2023-03-01T09:02:27;11.65;;;7.57;;
65092;SDS011;52025;50.288;2.794;2023-03-01T09:05:08;10.82;;;6.68;;
65092;SDS011;52025;50.288;2.794;2023-03-01T09:07:46;10.85;;;6.72;;
65092;SDS011;52025;50.288;2.794;2023-03-01T09:10:40;10.68;;;7.00;;
65092;SDS011;52025;50.288;2.794;2023-03-01T09:13:12;12.65;;;7.75;;
65092;SDS011;52025;50.288;2.794;2023-03-01T09:15:51;11.23;;;7.32;;
65092;SDS011;52025;50.288;2.794;2023-03-01T09:18:24;10.02;;;6.88;;
65092;SDS011;52025;50.288;2.794;2023-03-01T09:20:59;11.35;;;6.05;;
65092;SDS011;52025;50.288;2.794;2023-03-01T09:23:37;10.07;;;6.05;;
65092;SDS011;52025;50.288;2.794;2023-03-01T09:26:24;9.18;;;6.40;;
65092;SDS011;52025;50.288;2.794;2023-03-01T09:29:03;14.55;;;6.65;;
65092;SDS011;52025;50.288;2.794;2023-03-01T09:31:31;10.57;;;6.38;;
65092;SDS011;52025;50.288;2.794;2023-03-01T09:33:56;10.88;;;6.90;;
65092;SDS011;52025;50.288;2.794;2023-03-01T09:36:24;14.70;;;6.63;;
65092;SDS011;52025;50.288;2.794;2023-03-01T09:38:52;10.27;;;7.13;;
65092;SDS011;52025;50.288;2.794;2023-03-01T09:47:53;10.60;;;6.15;;
65092;SDS011;52025;50.288;2.794;2023-03-01T10:02:50;11.27;;;5.72;;
65092;SDS011;52025;50.288;2.794;2023-03-01T10:05:31;11.68;;;6.03;;
65092;SDS011;52025;50.288;2.794;2023-03-01T10:11:28;11.05;;;6.15;;
65092;SDS011;52025;50.288;2.794;2023-03-01T10:16:47;13.77;;;6.68;;
65092;SDS011;52025;50.288;2.794;2023-03-01T10:19:39;10.85;;;6.32;;
65092;SDS011;52025;50.288;2.794;2023-03-01T10:22:17;12.35;;;6.57;;
65092;SDS011;52025;50.288;2.794;2023-03-01T10:25:12;9.48;;;5.75;;
65092;SDS011;52025;50.288;2.794;2023-03-01T10:28:02;10.18;;;5.55;;
65092;SDS011;52025;50.288;2.794;2023-03-01T10:30:44;11.55;;;5.97;;
65092;SDS011;52025;50.288;2.794;2023-03-01T10:36:26;10.93;;;6.50;;
65092;SDS011;52025;50.288;2.794;2023-03-01T10:41:30;12.43;;;5.82;;
65092;SDS011;52025;50.288;2.794;2023-03-01T10:53:48;12.63;;;5.80;;
65092;SDS011;52025;50.288;2.794;2023-03-01T11:07:22;8.02;;;5.30;;
65092;SDS011;52025;50.288;2.794;2023-03-01T11:09:47;8.82;;;5.40;;
65092;SDS011;52025;50.288;2.794;2023-03-01T11:12:16;12.75;;;6.70;;
65092;SDS011;52025;50.288;2.794;2023-03-01T11:17:23;10.25;;;6.93;;
65092;SDS011;52025;50.288;2.794;2023-03-01T11:20:15;11.15;;;6.45;;
65092;SDS011;52025;50.288;2.794;2023-03-01T11:22:47;9.57;;;5.50;;
65092;SDS011;52025;50.288;2.794;2023-03-01T12:01:06;11.13;;;6.80;;
65092;SDS011;52025;50.288;2.794;2023-03-01T12:06:26;9.52;;;6.30;;
65092;SDS011;52025;50.288;2.794;2023-03-01T12:23:08;9.75;;;6.30;;
65092;SDS011;52025;50.288;2.794;2023-03-01T12:31:16;9.68;;;6.13;;
65092;SDS011;52025;50.288;2.794;2023-03-01T12:39:39;9.38;;;5.82;;
65092;SDS011;52025;50.288;2.794;2023-03-01T12:48:06;12.13;;;6.35;;
65092;SDS011;52025;50.288;2.794;2023-03-01T12:50:43;10.40;;;6.15;;
65092;SDS011;52025;50.288;2.794;2023-03-01T12:55:49;9.00;;;5.40;;
65092;SDS011;52025;50.288;2.794;2023-03-01T13:01:15;9.75;;;6.18;;
65092;SDS011;52025;50.288;2.794;2023-03-01T13:10:20;8.13;;;5.47;;
65092;SDS011;52025;50.288;2.794;2023-03-01T13:13:02;9.70;;;5.60;;
65092;SDS011;52025;50.288;2.794;2023-03-01T13:15:37;8.80;;;4.80;;
65092;SDS011;52025;50.288;2.794;2023-03-01T13:21:06;7.18;;;3.33;;
65092;SDS011;52025;50.288;2.794;2023-03-01T13:23:35;7.35;;;4.65;;
65092;SDS011;52025;50.288;2.794;2023-03-01T13:28:53;11.00;;;5.65;;
65092;SDS011;52025;50.288;2.794;2023-03-01T13:33:54;8.05;;;4.65;;
65092;SDS011;52025;50.288;2.794;2023-03-01T13:46:38;7.60;;;4.40;;
65092;SDS011;52025;50.288;2.794;2023-03-01T13:49:03;8.25;;;4.60;;
65092;SDS011;52025;50.288;2.794;2023-03-01T13:51:29;8.85;;;5.65;;
65092;SDS011;52025;50.288;2.794;2023-03-01T13:53:55;9.13;;;5.00;;
65092;SDS011;52025;50.288;2.794;2023-03-01T13:56:24;10.00;;;5.28;;
65092;SDS011;52025;50.288;2.794;2023-03-01T13:58:54;10.40;;;5.70;;
65092;SDS011;52025;50.288;2.794;2023-03-01T14:01:28;7.90;;;5.18;;
65092;SDS011;52025;50.288;2.794;2023-03-01T14:03:54;8.88;;;5.38;;
65092;SDS011;52025;50.288;2.794;2023-03-01T14:06:20;9.02;;;4.68;;
65092;SDS011;52025;50.288;2.794;2023-03-01T14:08:47;8.20;;;5.32;;
65092;SDS011;52025;50.288;2.794;2023-03-01T14:16:30;9.10;;;5.40;;
65092;SDS011;52025;50.288;2.794;2023-03-01T14:19:15;9.40;;;5.15;;
65092;SDS011;52025;50.288;2.794;2023-03-01T14:24:37;8.35;;;4.70;;
65092;SDS011;52025;50.288;2.794;2023-03-01T14:27:03;8.88;;;5.47;;
65092;SDS011;52025;50.288;2.794;2023-03-01T14:29:37;9.95;;;6.00;;
65092;SDS011;52025;50.288;2.794;2023-03-01T14:32:17;8.82;;;5.00;;
65092;SDS011;52025;50.288;2.794;2023-03-01T14:34:55;11.27;;;6.85;;
65092;SDS011;52025;50.288;2.794;2023-03-01T14:37:28;9.48;;;5.72;;
65092;SDS011;52025;50.288;2.794;2023-03-01T14:39:55;9.93;;;5.32;;
65092;SDS011;52025;50.288;2.794;2023-03-01T14:42:23;10.80;;;5.35;;
65092;SDS011;52025;50.288;2.794;2023-03-01T14:44:51;9.02;;;5.18;;
65092;SDS011;52025;50.288;2.794;2023-03-01T14:47:35;10.48;;;5.43;;
65092;SDS011;52025;50.288;2.794;2023-03-01T14:50:46;7.72;;;5.10;;
65092;SDS011;52025;50.288;2.794;2023-03-01T14:52:57;10.32;;;4.85;;
65092;SDS011;52025;50.288;2.794;2023-03-01T14:55:29;12.18;;;5.85;;
65092;SDS011;52025;50.288;2.794;2023-03-01T14:58:02;7.97;;;5.15;;
65092;SDS011;52025;50.288;2.794;2023-03-01T15:15:30;10.45;;;5.57;;
65092;SDS011;52025;50.288;2.794;2023-03-01T15:24:20;9.18;;;5.32;;
65092;SDS011;52025;50.288;2.794;2023-03-01T15:50:58;12.02;;;5.28;;
65092;SDS011;52025;50.288;2.794;2023-03-01T16:02:57;9.95;;;5.32;;
65092;SDS011;52025;50.288;2.794;2023-03-01T16:05:27;7.47;;;4.28;;
65092;SDS011;52025;50.288;2.794;2023-03-01T16:08:00;7.95;;;4.85;;
65092;SDS011;52025;50.288;2.794;2023-03-01T17:46:58;8.63;;;5.00;;
65092;SDS011;52025;50.288;2.794;2023-03-01T17:49:23;8.77;;;4.78;;
65092;SDS011;52025;50.288;2.794;2023-03-01T17:51:48;7.78;;;4.53;;
65092;SDS011;52025;50.288;2.794;2023-03-01T17:54:13;8.90;;;5.03;;
65092;SDS011;52025;50.288;2.794;2023-03-01T18:02:55;8.88;;;5.05;;
65092;SDS011;52025;50.288;2.794;2023-03-01T18:05:20;8.10;;;4.75;;
65092;SDS011;52025;50.288;2.794;2023-03-01T18:07:46;9.32;;;5.65;;
65092;SDS011;52025;50.288;2.794;2023-03-01T18:13:19;10.45;;;5.80;;
65092;SDS011;52025;50.288;2.794;2023-03-01T18:25:21;11.27;;;5.65;;
65092;SDS011;52025;50.288;2.794;2023-03-01T18:28:20;10.77;;;5.95;;
65092;SDS011;52025;50.288;2.794;2023-03-01T18:31:07;10.98;;;5.97;;
65092;SDS011;52025;50.288;2.794;2023-03-01T18:33:54;11.95;;;5.97;;
65092;SDS011;52025;50.288;2.794;2023-03-01T18:39:34;8.43;;;5.70;;
65092;SDS011;52025;50.288;2.794;2023-03-01T18:42:22;10.55;;;6.32;;
65092;SDS011;52025;50.288;2.794;2023-03-01T18:44:54;11.50;;;6.65;;
65092;SDS011;52025;50.288;2.794;2023-03-01T18:47:19;10.98;;;6.63;;
65092;SDS011;52025;50.288;2.794;2023-03-01T18:49:48;11.13;;;6.88;;
65092;SDS011;52025;50.288;2.794;2023-03-01T18:52:13;14.40;;;6.78;;
65092;SDS011;52025;50.288;2.794;2023-03-01T18:54:38;14.50;;;6.97;;
65092;SDS011;52025;50.288;2.794;2023-03-01T18:57:04;14.48;;;7.20;;
65092;SDS011;52025;50.288;2.794;2023-03-01T18:59:29;12.27;;;7.18;;
65092;SDS011;52025;50.288;2.794;2023-03-01T19:01:54;10.98;;;7.32;;
65092;SDS011;52025;50.288;2.794;2023-03-01T19:04:20;13.27;;;7.43;;
65092;SDS011;52025;50.288;2.794;2023-03-01T19:06:45;12.68;;;7.80;;
65092;SDS011;52025;50.288;2.794;2023-03-01T19:09:12;13.10;;;7.95;;
65092;SDS011;52025;50.288;2.794;2023-03-01T19:11:39;14.20;;;7.72;;
65092;SDS011;52025;50.288;2.794;2023-03-01T19:14:05;14.93;;;8.57;;
65092;SDS011;52025;50.288;2.794;2023-03-01T19:16:31;15.30;;;7.90;;
65092;SDS011;52025;50.288;2.794;2023-03-01T19:19:00;15.35;;;7.88;;
65092;SDS011;52025;50.288;2.794;2023-03-01T19:37:08;12.35;;;7.15;;
65092;SDS011;52025;50.288;2.794;2023-03-01T19:39:36;12.57;;;7.43;;
65092;SDS011;52025;50.288;2.794;2023-03-01T19:42:11;13.02;;;7.57;;
65092;SDS011;52025;50.288;2.794;2023-03-01T19:44:36;13.30;;;7.38;;
65092;SDS011;52025;50.288;2.794;2023-03-01T19:47:06;13.88;;;8.15;;
65092;SDS011;52025;50.288;2.794;2023-03-01T19:49:34;14.73;;;7.45;;
65092;SDS011;52025;50.288;2.794;2023-03-01T19:52:09;12.27;;;7.50;;
65092;SDS011;52025;50.288;2.794;2023-03-01T19:54:42;14.13;;;8.15;;
65092;SDS011;52025;50.288;2.794;2023-03-01T19:57:18;12.80;;;8.20;;
65092;SDS011;52025;50.288;2.794;2023-03-01T19:59:45;16.13;;;8.50;;
65092;SDS011;52025;50.288;2.794;2023-03-01T20:02:18;12.77;;;7.90;;
65092;SDS011;52025;50.288;2.794;2023-03-01T20:04:51;17.30;;;8.77;;
65092;SDS011;52025;50.288;2.794;2023-03-01T20:07:21;14.68;;;9.05;;
65092;SDS011;52025;50.288;2.794;2023-03-01T20:09:52;12.00;;;7.93;;
65092;SDS011;52025;50.288;2.794;2023-03-01T20:27:50;14.13;;;7.88;;
65092;SDS011;52025;50.288;2.794;2023-03-01T20:33:27;14.27;;;8.73;;
65092;SDS011;52025;50.288;2.794;2023-03-01T20:38:46;10.93;;;7.93;;
65092;SDS011;52025;50.288;2.794;2023-03-01T20:41:12;11.80;;;7.72;;
65092;SDS011;52025;50.288;2.794;2023-03-01T20:43:40;11.65;;;7.60;;
65092;SDS011;52025;50.288;2.794;2023-03-01T20:46:07;14.40;;;8.07;;
65092;SDS011;52025;50.288;2.794;2023-03-01T20:48:40;12.73;;;8.27;;
65092;SDS011;52025;50.288;2.794;2023-03-01T20:51:09;20.75;;;8.85;;
65092;SDS011;52025;50.288;2.794;2023-03-01T20:53:37;12.93;;;7.97;;
65092;SDS011;52025;50.288;2.794;2023-03-01T20:56:06;15.68;;;8.95;;
65092;SDS011;52025;50.288;2.794;2023-03-01T20:58:32;11.30;;;8.20;;
65092;SDS011;52025;50.288;2.794;2023-03-01T21:00:59;13.93;;;8.90;;
65092;SDS011;52025;50.288;2.794;2023-03-01T21:03:25;16.38;;;8.15;;
65092;SDS011;52025;50.288;2.794;2023-03-01T21:05:53;13.10;;;9.20;;
65092;SDS011;52025;50.288;2.794;2023-03-01T21:08:18;13.45;;;8.60;;
65092;SDS011;52025;50.288;2.794;2023-03-01T21:10:48;13.02;;;8.90;;
65092;SDS011;52025;50.288;2.794;2023-03-01T21:13:24;12.93;;;7.88;;
65092;SDS011;52025;50.288;2.794;2023-03-01T21:15:59;14.13;;;9.35;;
65092;SDS011;52025;50.288;2.794;2023-03-01T21:18:25;13.32;;;7.85;;
65092;SDS011;52025;50.288;2.794;2023-03-01T21:21:19;13.45;;;8.43;;
65092;SDS011;52025;50.288;2.794;2023-03-01T21:23:50;11.13;;;7.88;;
65092;SDS011;52025;50.288;2.794;2023-03-01T21:26:27;13.65;;;8.38;;
65092;SDS011;52025;50.288;2.794;2023-03-01T21:38:27;12.88;;;8.13;;
65092;SDS011;52025;50.288;2.794;2023-03-01T21:41:11;16.85;;;8.93;;
65092;SDS011;52025;50.288;2.794;2023-03-01T21:53:24;13.98;;;8.85;;
65092;SDS011;52025;50.288;2.794;2023-03-01T21:56:25;12.35;;;8.70;;
65092;SDS011;52025;50.288;2.794;2023-03-01T22:02:34;15.48;;;9.77;;
65092;SDS011;52025;50.288;2.794;2023-03-01T22:05:28;13.13;;;8.95;;
65092;SDS011;52025;50.288;2.794;2023-03-01T22:08:08;13.70;;;8.65;;
65092;SDS011;52025;50.288;2.794;2023-03-01T22:10:42;12.73;;;8.70;;
65092;SDS011;52025;50.288;2.794;2023-03-01T22:13:23;15.60;;;8.40;;
65092;SDS011;52025;50.288;2.794;2023-03-01T22:18:42;15.30;;;9.13;;
65092;SDS011;52025;50.288;2.794;2023-03-01T22:21:40;13.55;;;8.30;;
65092;SDS011;52025;50.288;2.794;2023-03-01T22:24:21;16.42;;;9.32;;
65092;SDS011;52025;50.288;2.794;2023-03-01T22:26:59;13.65;;;8.73;;
65092;SDS011;52025;50.288;2.794;2023-03-01T22:29:53;15.20;;;9.07;;
65092;SDS011;52025;50.288;2.794;2023-03-01T22:38:45;14.30;;;8.50;;
65092;SDS011;52025;50.288;2.794;2023-03-01T22:47:31;15.25;;;10.30;;
65092;SDS011;52025;50.288;2.794;2023-03-01T22:50:20;12.02;;;9.13;;
65092;SDS011;52025;50.288;2.794;2023-03-01T22:53:04;15.77;;;9.73;;
65092;SDS011;52025;50.288;2.794;2023-03-01T22:55:58;15.02;;;9.82;;
